Time;durP1;ratioP1;P1;durP2;ratioP2;P2;SDS_P1;SDS_P2;PMS_P1;PMS_P2;Temp;Humidity;BMP_temperature;BMP_pressure;BME280_temperature;BME280_humidity;BME280_pressure;Samples;Min_cycle;Max_cycle;Signal;HPM_P1;HPM_P2
2022/01/12 00:00:24;;;;;;;6.47;5.60;;;;;;;17.98;52.48;103584.81;4848381;29;20041;-81
2022/01/12 00:02:53;;;;;;;7.28;5.47;;;;;;;17.99;52.21;103584.00;4846979;29;20046;-82
2022/01/12 00:05:20;;;;;;;6.97;5.00;;;;;;;17.98;52.18;103577.00;4846966;29;20034;-82
2022/01/12 00:07:49;;;;;;;7.07;5.15;;;;;;;17.97;52.05;103563.94;4827166;29;20478;-82
2022/01/12 00:10:17;;;;;;;6.80;5.20;;;;;;;17.97;52.23;103566.56;4844290;29;20042;-82
2022/01/12 00:12:43;;;;;;;6.00;5.28;;;;;;;17.98;52.35;103570.91;4827856;29;20034;-82
2022/01/12 00:15:09;;;;;;;6.65;5.20;;;;;;;17.98;52.26;103570.91;4820644;29;20045;-79
2022/01/12 00:17:34;;;;;;;6.75;4.93;;;;;;;17.96;52.13;103560.44;4787097;29;20042;-79
2022/01/12 00:19:59;;;;;;;7.13;5.00;;;;;;;17.97;52.28;103554.41;4818028;29;20034;-79
2022/01/12 00:22:26;;;;;;;6.47;4.90;;;;;;;17.97;52.20;103564.81;4817952;29;20042;-79
2022/01/12 00:25:11;;;;;;;6.85;4.82;;;;;;;17.97;52.29;103556.13;4818518;29;20046;-80
2022/01/12 00:33:09;;;;;;;6.25;4.90;;;;;;;17.96;52.15;103578.66;4822389;29;19923;-79
2022/01/12 00:35:36;;;;;;;9.13;4.72;;;;;;;17.97;52.21;103580.47;4789015;29;20045;-79
2022/01/12 00:38:02;;;;;;;5.90;4.40;;;;;;;17.96;52.10;103586.50;4802745;29;20133;-79
2022/01/12 00:40:27;;;;;;;6.97;5.15;;;;;;;17.95;52.25;103595.16;4788804;29;20516;-80
2022/01/12 00:42:53;;;;;;;7.45;4.70;;;;;;;17.96;52.21;103593.44;4817707;29;20050;-80
2022/01/12 00:45:20;;;;;;;5.93;4.53;;;;;;;17.96;52.04;103585.63;4803388;29;20435;-79
2022/01/12 00:47:45;;;;;;;6.75;4.68;;;;;;;17.95;52.00;103587.34;4790492;29;20061;-80
2022/01/12 00:50:11;;;;;;;7.57;4.60;;;;;;;17.95;51.94;103581.25;4818610;29;20050;-80
2022/01/12 00:52:36;;;;;;;5.43;4.53;;;;;;;17.95;51.98;103578.66;4833935;29;20046;-79
2022/01/12 00:55:03;;;;;;;5.53;4.40;;;;;;;17.94;52.00;103577.72;4801783;29;20054;-80
2022/01/12 00:57:30;;;;;;;5.88;4.72;;;;;;;17.95;51.96;103566.50;4812248;29;20030;-79
2022/01/12 00:59:55;;;;;;;4.65;4.15;;;;;;;17.95;52.08;103555.19;4782541;29;20171;-80
2022/01/12 01:02:21;;;;;;;6.07;4.63;;;;;;;17.95;52.18;103568.22;4782781;29;20478;-80
2022/01/12 01:04:47;;;;;;;5.47;4.30;;;;;;;17.94;51.99;103569.91;4815293;29;20049;-80
2022/01/12 01:07:12;;;;;;;4.90;3.97;;;;;;;17.94;52.03;103563.84;4813441;29;20070;-80
2022/01/12 01:09:43;;;;;;;5.25;4.13;;;;;;;17.94;52.03;103550.81;4786471;29;20387;-79
2022/01/12 01:12:08;;;;;;;5.75;3.90;;;;;;;17.94;51.89;103553.41;4798810;29;20099;-79
2022/01/12 01:14:47;;;;;;;5.30;4.07;;;;;;;17.93;51.96;103556.88;4812741;29;20047;-79
2022/01/12 01:25:32;;;;;;;5.10;3.83;;;;;;;17.94;51.92;103610.72;4814925;29;19919;-79
2022/01/12 01:28:01;;;;;;;5.18;4.03;;;;;;;17.93;51.88;103628.09;4800323;29;20059;-79
2022/01/12 01:30:27;;;;;;;6.22;3.90;;;;;;;17.92;51.92;103644.56;4831029;29;20456;-79
2022/01/12 01:32:53;;;;;;;5.05;4.22;;;;;;;17.94;51.99;103660.22;4812530;29;20034;-79
2022/01/12 01:35:19;;;;;;;7.07;4.20;;;;;;;17.93;51.69;103666.28;4812375;29;20043;-79
2022/01/12 01:37:44;;;;;;;5.25;3.80;;;;;;;17.92;51.76;103675.84;4782380;29;20545;-79
2022/01/12 01:40:12;;;;;;;4.55;4.03;;;;;;;17.93;51.92;103679.31;4796902;29;20125;-79
2022/01/12 01:53:45;;;;;;;4.22;3.83;;;;;;;17.93;51.77;103713.19;4796674;29;20406;-79
2022/01/12 01:56:11;;;;;;;4.60;4.10;;;;;;;17.92;51.75;103714.00;4794044;29;20034;-79
2022/01/12 01:58:37;;;;;;;5.32;4.05;;;;;;;17.92;51.93;103717.50;4815821;29;20449;-79
2022/01/12 02:01:03;;;;;;;5.70;4.03;;;;;;;17.92;51.75;103719.22;4816148;29;20095;-80
2022/01/12 02:03:29;;;;;;;4.65;3.90;;;;;;;17.91;51.84;103700.09;4784376;29;20043;-80
2022/01/12 02:05:55;;;;;;;4.88;4.07;;;;;;;17.89;51.84;103704.38;4767466;29;20130;-81
2022/01/12 02:08:21;;;;;;;4.78;3.90;;;;;;;17.89;51.72;103707.84;4799363;29;20141;-81
2022/01/12 02:10:51;;;;;;;4.78;4.00;;;;;;;17.91;51.66;103715.72;4787669;29;20427;-79
2022/01/12 02:13:17;;;;;;;5.25;3.80;;;;;;;17.92;51.75;103714.00;4800895;29;20062;-81
2022/01/12 02:15:45;;;;;;;5.05;3.78;;;;;;;17.89;51.70;103715.66;4786847;29;20047;-81
2022/01/12 02:39:49;;;;;;;4.50;4.00;;;;;;;17.91;51.86;103722.66;4781420;29;20038;-82
2022/01/12 02:42:17;;;;;;;4.20;3.35;;;;;;;17.89;51.84;103725.19;4819642;29;20058;-82
2022/01/12 02:55:43;;;;;;;4.43;3.60;;;;;;;17.87;51.39;103714.72;4820846;29;20107;-82
2022/01/12 02:58:09;;;;;;;5.47;3.70;;;;;;;17.86;51.47;103715.56;4818683;29;20039;-82
2022/01/12 03:03:22;;;;;;;4.80;3.70;;;;;;;17.86;51.62;103715.56;4757532;30;20098;-82
2022/01/12 03:05:57;;;;;;;4.35;3.67;;;;;;;17.86;51.66;103715.56;4786251;29;20042;-82
2022/01/12 03:08:24;;;;;;;3.88;3.47;;;;;;;17.86;51.62;103725.13;4807079;29;20045;-82
2022/01/12 03:10:50;;;;;;;5.50;3.70;;;;;;;17.86;51.71;103735.53;4819812;29;20045;-82
2022/01/12 03:13:15;;;;;;;5.50;3.78;;;;;;;17.85;51.71;103731.13;4836615;29;20074;-82
2022/01/12 03:15:41;;;;;;;3.67;3.38;;;;;;;17.85;51.32;103734.63;4822024;29;20047;-82
2022/01/12 03:18:07;;;;;;;4.95;3.38;;;;;;;17.85;51.51;103738.94;4776996;29;20133;-82
2022/01/12 03:20:33;;;;;;;4.57;3.40;;;;;;;17.84;51.57;103740.69;4792467;29;20038;-82
2022/01/12 03:22:59;;;;;;;3.70;3.08;;;;;;;17.84;51.53;103737.19;4823352;29;20472;-81
2022/01/12 03:25:24;;;;;;;3.70;3.35;;;;;;;17.85;51.59;103744.16;4777568;29;20054;-82
2022/01/12 03:27:50;;;;;;;4.65;3.47;;;;;;;17.84;51.69;103747.63;4777615;29;20034;-81
2022/01/12 03:30:16;;;;;;;4.50;3.85;;;;;;;17.84;51.57;103750.22;4821871;29;20039;-81
2022/01/12 03:32:47;;;;;;;4.40;3.35;;;;;;;17.84;51.45;103752.81;4807636;29;20067;-82
2022/01/12 03:35:25;;;;;;;3.83;3.28;;;;;;;17.82;51.65;103755.38;4792924;29;20041;-81
2022/01/12 03:38:33;;;;;;;4.07;2.97;;;;;;;17.83;51.53;103758.84;4831612;29;20106;-82
2022/01/12 03:40:42;;;;;;;3.65;2.97;;;;;;;17.82;51.76;103765.78;4809807;29;20072;-82
2022/01/12 03:43:08;;;;;;;4.10;3.33;;;;;;;17.83;51.43;103766.66;4788083;29;20042;-81
2022/01/12 03:45:33;;;;;;;4.22;3.45;;;;;;;17.82;51.75;103763.19;4803460;29;20054;-81
2022/01/12 03:47:59;;;;;;;4.85;3.17;;;;;;;17.81;51.61;103756.19;4819714;29;20083;-82
2022/01/12 03:50:25;;;;;;;4.35;3.22;;;;;;;17.80;51.75;103746.56;4821588;29;20088;-82
2022/01/12 03:52:51;;;;;;;5.47;3.42;;;;;;;17.79;51.72;103739.59;4820645;29;20042;-82
2022/01/12 03:55:16;;;;;;;3.78;3.08;;;;;;;17.81;51.74;103739.63;4821427;29;20038;-82
2022/01/12 03:57:41;;;;;;;3.80;2.90;;;;;;;17.81;51.62;103737.03;4802458;29;20039;-81
2022/01/12 04:00:08;;;;;;;4.20;3.03;;;;;;;17.79;51.68;103734.41;4816129;29;20034;-81
2022/01/12 04:02:34;;;;;;;4.75;3.20;;;;;;;17.80;51.27;103741.38;4801265;29;20047;-82
2022/01/12 04:10:19;;;;;;;3.95;2.90;;;;;;;17.79;51.16;103757.84;4818481;29;20072;-82
2022/01/12 04:12:44;;;;;;;4.05;2.83;;;;;;;17.78;51.83;103758.66;4817215;29;20046;-81
2022/01/12 04:15:10;;;;;;;3.83;2.70;;;;;;;17.79;51.47;103762.13;4786306;29;20045;-81
2022/01/12 04:17:35;;;;;;;3.70;2.50;;;;;;;17.79;51.69;103764.75;4788110;29;20047;-82
2022/01/12 04:20:03;;;;;;;3.15;2.60;;;;;;;17.77;51.50;103764.72;4775079;29;20035;-82
2022/01/12 04:25:12;;;;;;;;;;;;;;;17.77;51.42;103762.09;4826970;29;20041;-82
2022/01/12 04:27:39;;;;;;;4.25;2.65;;;;;;;17.77;51.36;103758.59;4827445;29;19952;-82
2022/01/12 04:30:08;;;;;;;4.28;2.67;;;;;;;17.76;51.50;103760.31;4840704;29;20043;-82
2022/01/12 04:32:37;;;;;;;4.40;2.70;;;;;;;17.77;51.48;103769.00;4816816;29;20062;-81
2022/01/12 04:35:04;;;;;;;3.95;2.70;;;;;;;17.75;51.44;103758.56;4832183;29;20023;-82
2022/01/12 04:37:29;;;;;;;3.53;2.42;;;;;;;17.75;51.50;103755.06;4796293;29;20047;-82
2022/01/12 04:39:54;;;;;;;3.88;2.50;;;;;;;17.74;51.22;103768.91;4780519;29;20401;-82
2022/01/12 04:42:20;;;;;;;3.15;2.38;;;;;;;17.75;51.54;103762.88;4795101;29;20070;-82
2022/01/12 04:44:47;;;;;;;4.15;2.65;;;;;;;17.73;51.38;103752.41;4794198;29;20050;-82
2022/01/12 04:47:29;;;;;;;5.28;2.58;;;;;;;17.74;51.40;103755.88;4780139;29;20050;-81
2022/01/12 04:49:56;;;;;;;3.58;2.65;;;;;;;17.73;51.49;103761.94;4799126;29;20047;-81
2022/01/12 04:52:22;;;;;;;3.80;2.40;;;;;;;17.73;51.49;103768.03;4828933;29;20047;-82
2022/01/12 04:54:47;;;;;;;4.65;2.72;;;;;;;17.73;51.22;103774.97;4839937;29;20514;-82
2022/01/12 04:57:12;;;;;;;3.58;2.50;;;;;;;17.71;51.31;103764.47;4779041;29;20039;-80
2022/01/12 04:59:48;;;;;;;3.78;2.58;;;;;;;17.72;51.44;103783.59;4823642;29;20125;-81
2022/01/12 05:07:56;;;;;;;3.55;2.30;;;;;;;17.71;51.25;103784.44;4810442;29;20058;-82
2022/01/12 05:12:55;;;;;;;2.83;2.50;;;;;;;17.70;51.33;103791.34;4795702;29;20043;-82
2022/01/12 05:15:34;;;;;;;3.45;2.30;;;;;;;17.69;51.05;103787.84;4780230;29;20047;-82
2022/01/12 05:18:00;;;;;;;3.20;2.25;;;;;;;17.69;51.06;103789.59;4784214;29;20043;-82
2022/01/12 05:20:26;;;;;;;4.72;2.60;;;;;;;17.69;51.26;103795.66;4824420;29;20039;-81
2022/01/12 05:22:52;;;;;;;3.47;2.40;;;;;;;17.68;51.07;103798.22;4823385;29;20081;-82
2022/01/12 05:25:17;;;;;;;3.33;2.15;;;;;;;17.66;51.26;103795.56;4791401;29;20104;-81
2022/01/12 05:27:44;;;;;;;4.57;2.30;;;;;;;17.68;51.07;103793.91;4824176;29;20103;-82
2022/01/12 05:30:11;;;;;;;3.95;2.40;;;;;;;17.67;51.15;103801.66;4809323;29;20134;-82
2022/01/12 05:32:36;;;;;;;3.85;2.35;;;;;;;17.66;50.94;103803.38;4820720;29;20063;-81
2022/01/12 05:35:04;;;;;;;4.10;2.35;;;;;;;17.67;51.27;103804.25;4818514;29;20043;-82
2022/01/12 05:37:30;;;;;;;3.15;2.00;;;;;;;17.67;51.10;103805.13;4805304;29;20039;-82
2022/01/12 05:39:55;;;;;;;2.83;2.33;;;;;;;17.67;51.15;103801.66;4821396;29;20045;-79
2022/01/12 05:42:21;;;;;;;3.10;2.00;;;;;;;17.68;51.04;103811.22;4815966;29;20043;-79
2022/01/12 05:44:46;;;;;;;4.45;2.20;;;;;;;17.68;51.07;103813.84;4776139;29;20039;-80
2022/01/12 05:50:38;;;;;;;3.88;1.80;;;;;;;17.71;51.16;103813.09;4803671;29;20043;-81
2022/01/12 05:53:16;;;;;;;3.05;2.03;;;;;;;17.69;51.00;103820.84;4776999;29;20080;-81
2022/01/12 05:59:03;;;;;;;2.90;1.90;;;;;;;17.69;51.09;103834.72;4812366;29;20038;-78
2022/01/12 06:01:28;;;;;;;2.50;1.77;;;;;;;17.69;51.20;103836.47;4810264;29;20047;-78
2022/01/12 06:03:54;;;;;;;2.72;2.00;;;;;;;17.68;50.95;103838.19;4825263;29;20490;-78
2022/01/12 06:06:20;;;;;;;3.85;1.92;;;;;;;17.68;51.25;103845.09;4811545;29;20120;-78
2022/01/12 06:08:45;;;;;;;7.25;2.95;;;;;;;17.70;51.27;103848.63;4810250;29;20046;-78
2022/01/12 06:11:10;;;;;;;12.02;5.18;;;;;;;17.73;51.17;103837.47;4796221;29;20507;-78
2022/01/12 06:13:36;;;;;;;16.50;5.35;;;;;;;17.76;51.24;103845.38;4796476;29;20100;-78
2022/01/12 06:16:01;;;;;;;11.00;4.88;;;;;;;17.77;51.42;103853.28;4811641;29;20130;-78
2022/01/12 06:18:27;;;;;;;12.52;4.60;;;;;;;17.77;51.50;103850.66;4831048;29;20086;-80
2022/01/12 06:21:11;;;;;;;12.35;4.38;;;;;;;17.79;51.55;103849.00;5048552;24;20085;-80
2022/01/12 06:23:39;;;;;;;8.57;4.07;;;;;;;17.79;51.63;103856.81;4870382;29;20114;-78
2022/01/12 06:26:10;;;;;;;11.45;3.53;;;;;;;17.79;51.69;103858.50;4860910;29;20044;-80
2022/01/12 06:28:39;;;;;;;8.02;3.88;;;;;;;17.79;51.46;103859.44;4864331;29;20491;-79
2022/01/12 06:31:10;;;;;;;8.18;3.42;;;;;;;17.80;51.48;103860.31;4862390;29;20049;-79
2022/01/12 06:33:41;;;;;;;11.20;3.90;;;;;;;17.80;51.61;103866.41;4861612;29;20125;-79
2022/01/12 06:36:08;;;;;;;9.63;3.60;;;;;;;17.81;51.79;103877.69;4862078;29;20045;-80
2022/01/12 06:38:36;;;;;;;6.90;3.55;;;;;;;17.79;51.60;103877.66;4863023;29;20041;-79
2022/01/12 06:41:02;;;;;;;8.77;3.03;;;;;;;17.81;51.58;103876.00;4847563;29;20052;-79
2022/01/12 06:43:28;;;;;;;8.38;3.45;;;;;;;17.80;51.53;103884.63;4848260;29;20045;-80
2022/01/12 06:45:55;;;;;;;7.93;2.70;;;;;;;17.80;51.28;103889.84;4848765;29;20581;-79
2022/01/12 06:48:20;;;;;;;9.82;3.22;;;;;;;17.81;51.61;103899.44;4848234;29;20045;-79
2022/01/12 06:50:46;;;;;;;6.90;3.03;;;;;;;17.81;51.43;103912.47;4848672;29;20046;-79
2022/01/12 06:53:11;;;;;;;6.00;2.97;;;;;;;17.81;51.59;103904.66;4865448;29;20510;-79
2022/01/12 06:55:37;;;;;;;5.78;2.60;;;;;;;17.81;51.44;103907.28;4849486;29;20442;-78
2022/01/12 06:58:02;;;;;;;6.20;2.85;;;;;;;17.83;51.41;103909.94;4834562;29;20138;-79
2022/01/12 07:00:28;;;;;;;5.30;2.85;;;;;;;17.83;51.44;103907.34;4864302;29;20033;-78
2022/01/12 07:03:13;;;;;;;4.43;2.63;;;;;;;17.82;51.37;103903.84;4852255;29;20034;-80
2022/01/12 07:05:38;;;;;;;6.18;2.80;;;;;;;17.82;51.29;103911.66;4854092;29;20066;-79
2022/01/12 07:13:15;;;;;;;5.97;2.72;;;;;;;17.82;51.15;103903.84;4881993;24;20259;-82
2022/01/12 07:15:42;;;;;;;4.50;2.40;;;;;;;17.81;51.38;103904.66;4868334;29;20044;-83
2022/01/12 07:18:08;;;;;;;4.28;2.30;;;;;;;17.82;51.27;103918.59;4867687;29;20025;-83
2022/01/12 07:20:34;;;;;;;4.40;2.25;;;;;;;17.83;51.56;103928.19;4884701;29;20064;-84
2022/01/12 07:43:41;;;;;;;4.13;2.00;;;;;;;17.85;51.03;103926.53;5907439;23;20024;-81
2022/01/12 07:46:10;;;;;;;3.33;1.65;;;;;;;17.85;51.31;103936.94;4867989;29;20122;-83
2022/01/12 07:48:35;;;;;;;5.15;2.05;;;;;;;17.85;51.18;103939.53;4868134;29;20097;-83
2022/01/12 07:51:01;;;;;;;3.08;2.00;;;;;;;17.86;51.01;103946.56;4867797;29;20049;-83
2022/01/12 07:53:27;;;;;;;4.00;2.10;;;;;;;17.87;50.96;103945.69;4868090;29;20030;-84
2022/01/12 07:55:53;;;;;;;4.78;2.08;;;;;;;17.87;51.18;103961.34;4867973;29;20022;-83
2022/01/12 07:58:19;;;;;;;3.58;1.90;;;;;;;17.86;51.38;103963.06;4869958;29;20041;-83
2022/01/12 08:00:45;;;;;;;3.08;1.83;;;;;;;17.88;51.18;103968.34;4871345;29;20025;-83
2022/01/12 08:03:12;;;;;;;2.63;1.70;;;;;;;17.88;51.25;103973.56;4872226;29;20018;-83
2022/01/12 08:05:38;;;;;;;4.03;2.00;;;;;;;17.86;51.12;103963.06;4872419;29;20072;-83
2022/01/12 08:08:04;;;;;;;3.60;1.98;;;;;;;17.88;51.02;103964.00;4872232;29;20046;-83
2022/01/12 08:13:05;;;;;;;2.92;1.73;;;;;;;17.88;51.18;103957.91;5122066;23;20072;-83
2022/01/12 08:15:30;;;;;;;3.03;1.90;;;;;;;17.89;50.91;103952.75;4871877;29;20124;-83
2022/01/12 08:17:56;;;;;;;4.75;1.80;;;;;;;17.91;50.93;103970.16;4871685;29;20032;-83
2022/01/12 08:20:26;;;;;;;2.13;1.48;;;;;;;17.92;50.87;103974.53;4871502;29;20033;-83
2022/01/12 08:22:52;;;;;;;3.60;1.70;;;;;;;17.91;51.12;103989.28;4871371;29;20070;-84
2022/01/12 08:25:18;;;;;;;2.22;1.52;;;;;;;17.93;50.73;103985.03;4871428;29;20022;-83
2022/01/12 08:35:29;;;;;;;3.15;1.83;;;;;;;17.95;50.77;104006.81;5305451;23;20045;-83
2022/01/12 08:37:55;;;;;;;2.72;1.70;;;;;;;17.96;50.77;104007.72;4870891;29;20049;-83
2022/01/12 08:40:21;;;;;;;3.63;1.42;;;;;;;17.93;50.94;104003.28;4871140;29;20021;-84
2022/01/12 08:42:47;;;;;;;3.20;1.50;;;;;;;17.94;50.73;104010.25;4871236;29;20014;-84
2022/01/12 08:45:15;;;;;;;3.20;1.60;;;;;;;17.93;50.92;104016.28;4871075;29;20021;-83
2022/01/12 08:47:40;;;;;;;2.58;1.52;;;;;;;17.96;50.72;104024.22;4871155;29;20059;-83
2022/01/12 08:50:07;;;;;;;2.28;1.50;;;;;;;17.95;50.71;104021.56;4887649;29;20022;-84
2022/01/12 08:52:36;;;;;;;2.85;1.60;;;;;;;17.96;50.87;104026.81;4870860;29;20041;-84
2022/01/12 08:55:03;;;;;;;2.25;1.40;;;;;;;17.97;50.94;104028.63;4871018;29;20025;-84
2022/01/12 08:57:29;;;;;;;2.80;1.50;;;;;;;17.97;50.99;104030.34;4871331;29;20069;-83
2022/01/12 08:59:57;;;;;;;1.80;1.38;;;;;;;17.96;50.40;104034.66;4886436;29;20041;-84
2022/01/12 09:02:22;;;;;;;2.60;1.58;;;;;;;17.98;50.72;104038.19;4871039;29;20101;-84
2022/01/12 09:04:48;;;;;;;2.60;1.58;;;;;;;17.98;50.74;104037.31;4870779;29;20049;-84
2022/01/12 09:22:45;;;;;;;2.80;1.73;;;;;;;18.02;50.75;104052.25;5768201;23;20041;-84
2022/01/12 09:25:11;;;;;;;2.28;1.45;;;;;;;18.01;50.57;104058.31;4889522;29;20045;-84
2022/01/12 09:27:41;;;;;;;2.70;1.42;;;;;;;18.03;50.63;104062.75;4905685;29;20069;-84
2022/01/12 09:30:12;;;;;;;2.45;1.45;;;;;;;18.02;50.38;104055.75;4904745;29;20034;-84
2022/01/12 09:32:38;;;;;;;3.47;1.50;;;;;;;18.04;50.63;104061.03;4889336;29;20021;-84
2022/01/12 09:35:05;;;;;;;2.10;1.40;;;;;;;18.04;50.42;104066.22;4888250;29;20025;-83
2022/01/12 09:41:31;;;;;;;2.65;1.55;;;;;;;18.05;50.66;104081.94;4904481;29;20061;-83
2022/01/12 09:47:50;;;;;;;2.38;1.30;;;;;;;18.07;50.68;104079.38;4904916;29;20039;-83
2022/01/12 09:57:40;;;;;;;2.05;1.38;;;;;;;18.08;50.52;104102.91;4847291;29;20058;-83
2022/01/12 10:00:54;;;;;;;3.20;1.33;;;;;;;18.05;50.63;104092.38;4847872;29;20056;-84
2022/01/12 10:07:14;;;;;;;1.50;1.20;;;;;;;18.02;50.73;104105.25;4831205;29;20071;-82
2022/01/12 10:09:46;;;;;;;2.28;1.40;;;;;;;18.02;50.74;104104.38;4828453;29;20073;-78
2022/01/12 10:12:15;;;;;;;1.55;1.20;;;;;;;18.01;50.67;104107.81;4830097;29;20069;-78
2022/01/12 10:14:50;;;;;;;1.90;1.30;;;;;;;18.00;50.75;104103.41;4830794;29;20042;-78
2022/01/12 10:17:33;;;;;;;1.58;1.23;;;;;;;18.00;50.90;104098.22;4813719;29;20079;-78
2022/01/12 10:20:23;;;;;;;2.38;1.33;;;;;;;18.00;50.82;104106.03;4828629;29;20030;-78
2022/01/12 10:23:01;;;;;;;2.03;1.50;;;;;;;17.99;50.88;104099.94;4796279;29;20059;-78
2022/01/12 10:25:29;;;;;;;2.63;1.30;;;;;;;17.99;51.06;104110.34;4829350;29;20046;-78
2022/01/12 10:27:55;;;;;;;2.10;1.40;;;;;;;17.97;50.57;104106.78;4813920;29;20042;-78
2022/01/12 10:30:28;;;;;;;2.88;1.60;;;;;;;17.97;50.73;104093.75;4813855;29;20129;-78
2022/01/12 10:33:06;;;;;;;2.78;1.60;;;;;;;17.97;50.88;104098.09;4813156;29;20076;-78
2022/01/12 10:35:41;;;;;;;2.35;1.60;;;;;;;17.95;50.71;104097.16;4846414;29;20037;-78
2022/01/12 10:38:13;;;;;;;2.10;1.58;;;;;;;17.95;50.80;104115.38;4846684;29;20071;-78
2022/01/12 10:40:58;;;;;;;1.80;1.20;;;;;;;17.95;50.86;104123.19;4846838;29;20045;-78
2022/01/12 10:43:44;;;;;;;2.28;1.45;;;;;;;17.94;50.96;104117.06;4864305;29;20112;-78
2022/01/12 10:46:14;;;;;;;2.38;1.50;;;;;;;17.94;50.96;104110.97;4849132;29;20041;-78
2022/01/12 10:48:46;;;;;;;1.98;1.40;;;;;;;17.95;50.64;104112.78;4850382;29;20037;-78
2022/01/12 10:51:14;;;;;;;2.33;1.55;;;;;;;17.93;51.02;104094.47;4867431;29;20058;-78
2022/01/12 10:53:40;;;;;;;2.88;1.45;;;;;;;17.94;50.71;104095.34;4850468;29;20511;-78
2022/01/12 10:56:17;;;;;;;2.08;1.45;;;;;;;17.93;50.92;104085.75;4836123;29;20037;-78
2022/01/12 10:58:45;;;;;;;2.50;1.50;;;;;;;17.92;50.88;104079.66;4865853;29;20044;-78
2022/01/12 11:01:12;;;;;;;2.65;1.55;;;;;;;17.93;51.06;104076.22;4867064;29;20434;-78
2022/01/12 11:03:38;;;;;;;2.30;1.63;;;;;;;17.93;50.81;104076.22;4867914;29;20037;-78
2022/01/12 11:06:04;;;;;;;2.15;1.77;;;;;;;17.93;50.66;104073.63;4851203;29;20488;-78
2022/01/12 11:08:31;;;;;;;2.03;1.60;;;;;;;17.94;50.67;104072.78;4867356;29;20059;-78
2022/01/12 11:10:58;;;;;;;2.83;1.73;;;;;;;17.95;50.82;104078.91;4849924;29;20056;-78
2022/01/12 11:13:25;;;;;;;2.45;1.63;;;;;;;17.95;50.70;104076.28;4850040;29;20041;-78
2022/01/12 11:15:52;;;;;;;2.92;1.70;;;;;;;17.95;50.65;104071.97;4846044;29;20077;-78
2022/01/12 11:18:25;;;;;;;2.40;1.40;;;;;;;17.95;50.90;104058.06;4831086;29;20038;-78
2022/01/12 11:20:53;;;;;;;2.38;1.60;;;;;;;17.97;50.78;104066.81;4862643;29;20170;-78
2022/01/12 11:23:19;;;;;;;2.13;1.40;;;;;;;17.96;50.54;104063.31;4846018;29;20053;-78
2022/01/12 11:25:50;;;;;;;3.38;1.73;;;;;;;17.95;50.90;104063.28;4830911;29;20093;-78
2022/01/12 11:28:27;;;;;;;2.33;1.60;;;;;;;17.95;50.55;104056.34;4846321;29;20038;-78
2022/01/12 11:30:54;;;;;;;3.05;1.70;;;;;;;17.96;50.48;104065.03;4846507;29;20041;-78
2022/01/12 11:33:42;;;;;;;2.78;1.52;;;;;;;17.95;50.78;104061.53;4861788;29;20051;-78
2022/01/12 11:36:16;;;;;;;1.88;1.42;;;;;;;17.96;50.41;104059.81;4847315;29;20049;-77
2022/01/12 11:38:47;;;;;;;1.92;1.40;;;;;;;17.96;50.53;104060.69;4853321;29;20045;-78
2022/01/12 11:41:28;;;;;;;1.92;1.58;;;;;;;17.98;50.98;104060.78;4832982;29;20076;-78
2022/01/12 11:43:57;;;;;;;30.33;20.35;;;;;;;18.01;50.76;104064.41;4865042;29;20034;-78
2022/01/12 11:46:25;;;;;;;58.60;39.88;;;;;;;18.03;50.49;104061.84;4863976;29;20172;-78
2022/01/12 11:48:54;;;;;;;50.75;35.97;;;;;;;18.03;50.67;104065.34;4849265;29;20034;-78
2022/01/12 11:51:31;;;;;;;50.58;37.05;;;;;;;18.07;50.53;104053.31;4847606;29;20089;-78
2022/01/12 11:54:01;;;;;;;51.15;35.90;;;;;;;18.07;50.53;104062.03;4847031;29;20030;-78
2022/01/12 11:56:26;;;;;;;40.05;29.98;;;;;;;18.08;50.58;104061.19;4847788;29;20034;-78
2022/01/12 11:59:05;;;;;;;40.40;28.77;;;;;;;18.08;50.44;104055.09;4860701;29;20101;-78
2022/01/12 12:01:48;;;;;;;42.00;29.10;;;;;;;18.10;50.65;104056.06;4846004;29;20033;-77
2022/01/12 12:04:28;;;;;;;38.95;27.80;;;;;;;18.11;50.74;104039.56;4846297;29;20121;-77
2022/01/12 12:07:14;;;;;;;35.60;26.90;;;;;;;18.12;50.82;104040.47;4846483;29;20044;-77
2022/01/12 12:09:46;;;;;;;37.60;26.65;;;;;;;18.14;50.74;104031.91;4865737;29;20049;-77
2022/01/12 12:12:19;;;;;;;38.50;26.25;;;;;;;18.14;50.55;104021.47;4848575;29;20481;-77
2022/01/12 12:14:55;;;;;;;35.35;25.73;;;;;;;18.13;50.61;104026.63;4864435;29;20040;-77
2022/01/12 12:17:22;;;;;;;37.75;26.27;;;;;;;18.14;50.63;104024.06;4848157;29;20045;-77
2022/01/12 12:19:48;;;;;;;35.80;23.90;;;;;;;18.14;50.67;104021.47;4851776;29;20034;-78
2022/01/12 12:22:25;;;;;;;33.42;24.20;;;;;;;18.14;50.72;104023.16;4852006;29;20105;-78
2022/01/12 12:25:07;;;;;;;33.80;24.02;;;;;;;18.14;50.63;104018.88;4850459;29;20057;-78
2022/01/12 12:27:33;;;;;;;35.13;23.98;;;;;;;18.15;50.55;104023.22;4852400;29;20071;-77
2022/01/12 12:29:59;;;;;;;30.42;22.48;;;;;;;18.15;50.87;104033.66;4868466;29;20092;-77
2022/01/12 12:32:37;;;;;;;28.63;21.45;;;;;;;18.17;50.72;104031.13;4868727;29;20037;-77
2022/01/12 12:35:12;;;;;;;28.05;20.50;;;;;;;18.17;50.69;104028.50;4855353;29;20037;-77
2022/01/12 12:37:39;;;;;;;29.98;20.67;;;;;;;18.17;50.76;104038.94;4870037;29;20057;-77
2022/01/12 12:40:14;;;;;;;25.90;18.98;;;;;;;18.16;50.76;104045.88;4848252;29;20089;-77
2022/01/12 12:42:40;;;;;;;26.33;19.40;;;;;;;18.18;50.75;104058.94;4865012;29;20121;-77
2022/01/12 12:45:07;;;;;;;27.33;19.52;;;;;;;18.18;50.60;104062.47;4853275;29;20485;-77
2022/01/12 12:47:33;;;;;;;26.10;18.73;;;;;;;18.17;50.82;104052.84;4869228;29;20411;-77
2022/01/12 12:50:01;;;;;;;25.17;17.95;;;;;;;18.18;50.93;104064.16;4870747;29;20041;-77
2022/01/12 12:52:29;;;;;;;24.15;17.88;;;;;;;18.18;50.95;104062.47;4871902;29;20033;-77
2022/01/12 12:54:56;;;;;;;23.27;17.63;;;;;;;18.18;50.98;104061.56;4854208;29;20070;-77
2022/01/12 12:57:21;;;;;;;23.70;17.77;;;;;;;18.19;50.68;104063.34;4852274;29;20041;-77
2022/01/12 13:00:03;;;;;;;22.80;16.33;;;;;;;18.18;50.64;104062.47;4837277;29;20516;-77
2022/01/12 13:02:38;;;;;;;21.33;16.05;;;;;;;18.19;50.79;104064.22;4868392;29;20041;-77
2022/01/12 13:05:10;;;;;;;21.48;15.55;;;;;;;18.20;50.84;104062.50;4853336;29;20044;-77
2022/01/12 13:07:39;;;;;;;21.77;15.15;;;;;;;18.20;50.75;104060.78;4851893;29;20088;-77
2022/01/12 13:10:13;;;;;;;20.65;15.23;;;;;;;18.19;50.79;104053.81;4868736;29;20041;-77
2022/01/12 13:12:39;;;;;;;;;;;;;;;18.21;50.66;104059.97;4848664;29;20109;-78
2022/01/12 13:15:07;;;;;;;18.90;14.43;;;;;;;18.21;50.73;104059.97;4847986;29;20366;-77
2022/01/12 13:17:33;;;;;;;20.10;14.10;;;;;;;18.22;50.73;104058.25;4833045;29;20128;-78
2022/01/12 13:22:29;;;;;;;18.58;12.70;;;;;;;18.23;50.79;104055.69;4832542;29;20092;-78
2022/01/12 13:24:56;;;;;;;16.30;12.68;;;;;;;18.22;50.66;104056.53;4847625;29;20118;-78
2022/01/12 13:27:25;;;;;;;17.13;12.90;;;;;;;18.22;50.66;104059.13;4863181;29;20050;-80
2022/01/12 13:29:53;;;;;;;17.33;12.60;;;;;;;18.23;50.89;104060.91;4850793;29;20044;-81
2022/01/12 13:32:19;;;;;;;16.15;11.95;;;;;;;18.23;50.76;104054.81;4843146;29;20062;-81
2022/01/12 13:35:08;;;;;;;16.42;11.68;;;;;;;18.24;50.68;104056.59;4872014;29;20037;-81
2022/01/12 13:37:38;;;;;;;15.68;11.43;;;;;;;18.24;50.88;104057.47;4873659;29;20037;-81
2022/01/12 13:40:11;;;;;;;15.27;11.05;;;;;;;18.23;50.72;104058.31;4854310;29;20049;-81
2022/01/12 13:43:03;;;;;;;14.13;11.13;;;;;;;18.24;50.85;104061.81;4856854;29;20049;-81
2022/01/12 13:45:45;;;;;;;14.40;11.50;;;;;;;18.24;51.03;104054.88;4879457;29;20542;-81
2022/01/12 13:52:19;;;;;;;12.93;9.85;;;;;;;18.25;50.93;104048.84;4855587;29;20053;-81
2022/01/12 13:55:00;;;;;;;12.48;9.23;;;;;;;18.24;50.75;104039.22;4855451;29;20041;-81
2022/01/12 13:57:35;;;;;;;12.18;9.52;;;;;;;18.24;50.57;104047.03;4853347;29;20042;-81
2022/01/12 14:00:27;;;;;;;13.32;9.27;;;;;;;18.26;50.72;104053.22;4854895;29;20429;-81
2022/01/12 14:03:01;;;;;;;13.23;9.10;;;;;;;18.26;50.84;104061.03;4838997;29;20151;-82
2022/01/12 14:05:58;;;;;;;10.63;8.13;;;;;;;18.26;50.86;104049.72;4846909;29;20037;-81
2022/01/12 14:11:20;;;;;;;12.10;8.20;;;;;;;18.25;50.73;104054.03;4853653;29;20075;-81
2022/01/12 14:13:52;;;;;;;11.57;8.20;;;;;;;18.26;50.65;104055.81;4835133;29;20041;-81